sensor_id;sensor_type;location;lat;lon;timestamp;P1;durP1;ratioP1;P2;durP2;ratioP2
33954;SDS011;20233;50.804;7.126;2022-08-19T00:01:47;24.13;;;20.67;;
33954;SDS011;20233;50.804;7.126;2022-08-19T00:04:14;22.45;;;20.15;;
33954;SDS011;20233;50.804;7.126;2022-08-19T00:06:43;24.65;;;21.90;;
33954;SDS011;20233;50.804;7.126;2022-08-19T00:09:11;23.38;;;20.85;;
33954;SDS011;20233;50.804;7.126;2022-08-19T00:11:38;22.98;;;20.60;;
33954;SDS011;20233;50.804;7.126;2022-08-19T00:14:05;23.40;;;20.83;;
33954;SDS011;20233;50.804;7.126;2022-08-19T00:16:32;23.65;;;21.15;;
33954;SDS011;20233;50.804;7.126;2022-08-19T00:18:58;25.55;;;21.20;;
33954;SDS011;20233;50.804;7.126;2022-08-19T00:21:24;23.40;;;21.00;;
33954;SDS011;20233;50.804;7.126;2022-08-19T00:23:51;23.02;;;20.67;;
33954;SDS011;20233;50.804;7.126;2022-08-19T00:26:18;23.33;;;21.02;;
33954;SDS011;20233;50.804;7.126;2022-08-19T00:28:43;23.30;;;20.88;;
33954;SDS011;20233;50.804;7.126;2022-08-19T00:31:09;24.38;;;20.80;;
33954;SDS011;20233;50.804;7.126;2022-08-19T00:33:35;24.73;;;20.45;;
33954;SDS011;20233;50.804;7.126;2022-08-19T00:36:04;22.83;;;20.52;;
33954;SDS011;20233;50.804;7.126;2022-08-19T00:38:31;22.95;;;20.63;;
33954;SDS011;20233;50.804;7.126;2022-08-19T00:40:57;20.58;;;18.38;;
33954;SDS011;20233;50.804;7.126;2022-08-19T00:43:24;22.02;;;19.58;;
33954;SDS011;20233;50.804;7.126;2022-08-19T00:45:51;22.48;;;20.25;;
33954;SDS011;20233;50.804;7.126;2022-08-19T00:48:17;23.67;;;20.73;;
33954;SDS011;20233;50.804;7.126;2022-08-19T00:50:44;23.33;;;20.92;;
33954;SDS011;20233;50.804;7.126;2022-08-19T00:53:13;24.45;;;21.85;;
33954;SDS011;20233;50.804;7.126;2022-08-19T00:55:42;24.35;;;21.77;;
33954;SDS011;20233;50.804;7.126;2022-08-19T00:58:12;25.10;;;22.40;;
33954;SDS011;20233;50.804;7.126;2022-08-19T01:00:40;23.48;;;21.13;;
33954;SDS011;20233;50.804;7.126;2022-08-19T01:03:07;23.50;;;21.05;;
33954;SDS011;20233;50.804;7.126;2022-08-19T01:05:37;24.10;;;21.70;;
33954;SDS011;20233;50.804;7.126;2022-08-19T01:08:06;24.60;;;22.00;;
33954;SDS011;20233;50.804;7.126;2022-08-19T01:10:39;25.40;;;22.83;;
33954;SDS011;20233;50.804;7.126;2022-08-19T01:13:09;25.23;;;22.58;;
33954;SDS011;20233;50.804;7.126;2022-08-19T01:15:41;24.67;;;22.25;;
33954;SDS011;20233;50.804;7.126;2022-08-19T01:18:15;24.83;;;22.30;;
33954;SDS011;20233;50.804;7.126;2022-08-19T01:20:42;27.13;;;22.83;;
33954;SDS011;20233;50.804;7.126;2022-08-19T01:23:09;24.75;;;22.35;;
33954;SDS011;20233;50.804;7.126;2022-08-19T01:25:38;25.70;;;22.15;;
33954;SDS011;20233;50.804;7.126;2022-08-19T01:28:20;27.52;;;23.75;;
33954;SDS011;20233;50.804;7.126;2022-08-19T01:30:51;28.33;;;22.65;;
33954;SDS011;20233;50.804;7.126;2022-08-19T01:33:17;25.85;;;23.23;;
33954;SDS011;20233;50.804;7.126;2022-08-19T01:35:44;26.73;;;23.92;;
33954;SDS011;20233;50.804;7.126;2022-08-19T01:38:18;28.05;;;24.95;;
33954;SDS011;20233;50.804;7.126;2022-08-19T01:40:47;27.30;;;24.20;;
33954;SDS011;20233;50.804;7.126;2022-08-19T01:43:12;25.92;;;23.33;;
33954;SDS011;20233;50.804;7.126;2022-08-19T01:45:38;28.33;;;25.10;;
33954;SDS011;20233;50.804;7.126;2022-08-19T01:48:05;27.33;;;24.42;;
33954;SDS011;20233;50.804;7.126;2022-08-19T01:50:32;25.00;;;22.35;;
33954;SDS011;20233;50.804;7.126;2022-08-19T01:52:59;28.30;;;24.52;;
33954;SDS011;20233;50.804;7.126;2022-08-19T01:55:27;29.23;;;24.42;;
33954;SDS011;20233;50.804;7.126;2022-08-19T01:57:54;26.67;;;23.85;;
33954;SDS011;20233;50.804;7.126;2022-08-19T02:00:23;28.17;;;25.15;;
33954;SDS011;20233;50.804;7.126;2022-08-19T02:02:50;27.55;;;24.58;;
33954;SDS011;20233;50.804;7.126;2022-08-19T02:05:16;26.60;;;23.80;;
33954;SDS011;20233;50.804;7.126;2022-08-19T02:07:43;27.45;;;24.55;;
33954;SDS011;20233;50.804;7.126;2022-08-19T02:10:11;26.40;;;23.65;;
33954;SDS011;20233;50.804;7.126;2022-08-19T02:12:39;26.02;;;23.38;;
33954;SDS011;20233;50.804;7.126;2022-08-19T02:15:06;27.23;;;24.50;;
33954;SDS011;20233;50.804;7.126;2022-08-19T02:17:32;27.55;;;23.52;;
33954;SDS011;20233;50.804;7.126;2022-08-19T02:19:58;26.17;;;23.38;;
33954;SDS011;20233;50.804;7.126;2022-08-19T02:22:23;28.52;;;23.38;;
33954;SDS011;20233;50.804;7.126;2022-08-19T02:24:50;26.05;;;23.42;;
33954;SDS011;20233;50.804;7.126;2022-08-19T02:27:16;27.00;;;24.17;;
33954;SDS011;20233;50.804;7.126;2022-08-19T02:29:42;27.38;;;24.65;;
33954;SDS011;20233;50.804;7.126;2022-08-19T02:32:08;27.15;;;24.25;;
33954;SDS011;20233;50.804;7.126;2022-08-19T02:34:34;26.48;;;23.70;;
33954;SDS011;20233;50.804;7.126;2022-08-19T02:36:59;27.80;;;24.77;;
33954;SDS011;20233;50.804;7.126;2022-08-19T02:39:25;26.83;;;24.17;;
33954;SDS011;20233;50.804;7.126;2022-08-19T02:41:51;27.10;;;23.45;;
33954;SDS011;20233;50.804;7.126;2022-08-19T02:44:17;26.95;;;24.20;;
33954;SDS011;20233;50.804;7.126;2022-08-19T02:46:44;27.80;;;24.65;;
33954;SDS011;20233;50.804;7.126;2022-08-19T02:49:11;26.27;;;23.48;;
33954;SDS011;20233;50.804;7.126;2022-08-19T02:51:38;26.30;;;23.60;;
33954;SDS011;20233;50.804;7.126;2022-08-19T02:54:06;26.70;;;23.45;;
33954;SDS011;20233;50.804;7.126;2022-08-19T02:56:35;29.52;;;26.00;;
33954;SDS011;20233;50.804;7.126;2022-08-19T02:59:03;30.30;;;23.27;;
33954;SDS011;20233;50.804;7.126;2022-08-19T03:01:36;26.33;;;23.63;;
33954;SDS011;20233;50.804;7.126;2022-08-19T03:04:03;26.13;;;23.63;;
33954;SDS011;20233;50.804;7.126;2022-08-19T03:06:30;27.65;;;24.17;;
33954;SDS011;20233;50.804;7.126;2022-08-19T03:08:56;27.10;;;22.90;;
33954;SDS011;20233;50.804;7.126;2022-08-19T03:11:23;27.10;;;23.05;;
33954;SDS011;20233;50.804;7.126;2022-08-19T03:13:53;28.20;;;25.25;;
33954;SDS011;20233;50.804;7.126;2022-08-19T03:16:20;26.58;;;23.77;;
33954;SDS011;20233;50.804;7.126;2022-08-19T03:18:47;25.60;;;22.90;;
33954;SDS011;20233;50.804;7.126;2022-08-19T03:21:17;24.80;;;22.30;;
33954;SDS011;20233;50.804;7.126;2022-08-19T03:23:44;28.15;;;23.50;;
33954;SDS011;20233;50.804;7.126;2022-08-19T03:26:10;27.00;;;24.17;;
33954;SDS011;20233;50.804;7.126;2022-08-19T03:28:36;28.00;;;25.00;;
33954;SDS011;20233;50.804;7.126;2022-08-19T03:31:12;26.45;;;23.65;;
33954;SDS011;20233;50.804;7.126;2022-08-19T03:33:39;26.83;;;24.08;;
33954;SDS011;20233;50.804;7.126;2022-08-19T03:36:18;26.20;;;23.35;;
33954;SDS011;20233;50.804;7.126;2022-08-19T03:38:49;27.05;;;24.10;;
33954;SDS011;20233;50.804;7.126;2022-08-19T03:41:18;27.45;;;24.38;;
33954;SDS011;20233;50.804;7.126;2022-08-19T03:43:46;28.27;;;25.30;;
33954;SDS011;20233;50.804;7.126;2022-08-19T03:46:14;27.35;;;24.08;;
33954;SDS011;20233;50.804;7.126;2022-08-19T03:48:43;27.98;;;25.08;;
33954;SDS011;20233;50.804;7.126;2022-08-19T03:51:17;29.90;;;25.23;;
33954;SDS011;20233;50.804;7.126;2022-08-19T03:53:44;26.20;;;23.60;;
33954;SDS011;20233;50.804;7.126;2022-08-19T03:56:10;26.88;;;24.02;;
33954;SDS011;20233;50.804;7.126;2022-08-19T03:58:36;27.33;;;24.35;;
33954;SDS011;20233;50.804;7.126;2022-08-19T04:01:06;28.92;;;24.70;;
33954;SDS011;20233;50.804;7.126;2022-08-19T04:03:33;29.83;;;26.30;;
33954;SDS011;20233;50.804;7.126;2022-08-19T04:06:08;27.67;;;24.73;;
33954;SDS011;20233;50.804;7.126;2022-08-19T04:08:36;29.10;;;25.90;;
33954;SDS011;20233;50.804;7.126;2022-08-19T04:11:05;29.73;;;26.45;;
33954;SDS011;20233;50.804;7.126;2022-08-19T04:13:32;32.53;;;27.02;;
33954;SDS011;20233;50.804;7.126;2022-08-19T04:15:58;27.58;;;24.67;;
33954;SDS011;20233;50.804;7.126;2022-08-19T04:18:24;27.95;;;24.88;;
33954;SDS011;20233;50.804;7.126;2022-08-19T04:20:50;26.42;;;23.23;;
33954;SDS011;20233;50.804;7.126;2022-08-19T04:23:17;26.95;;;23.77;;
33954;SDS011;20233;50.804;7.126;2022-08-19T04:25:44;29.55;;;25.88;;
33954;SDS011;20233;50.804;7.126;2022-08-19T04:28:10;28.23;;;25.20;;
33954;SDS011;20233;50.804;7.126;2022-08-19T04:30:47;26.05;;;23.35;;
33954;SDS011;20233;50.804;7.126;2022-08-19T04:33:15;30.52;;;24.00;;
33954;SDS011;20233;50.804;7.126;2022-08-19T04:35:44;28.05;;;24.08;;
33954;SDS011;20233;50.804;7.126;2022-08-19T04:38:12;27.77;;;24.77;;
33954;SDS011;20233;50.804;7.126;2022-08-19T04:40:42;29.20;;;24.17;;
33954;SDS011;20233;50.804;7.126;2022-08-19T04:43:28;26.65;;;23.75;;
33954;SDS011;20233;50.804;7.126;2022-08-19T04:45:54;29.05;;;24.55;;
33954;SDS011;20233;50.804;7.126;2022-08-19T04:48:20;26.80;;;24.05;;
33954;SDS011;20233;50.804;7.126;2022-08-19T04:50:51;26.70;;;23.83;;
33954;SDS011;20233;50.804;7.126;2022-08-19T04:53:22;27.60;;;24.70;;
33954;SDS011;20233;50.804;7.126;2022-08-19T04:55:54;27.70;;;24.15;;
33954;SDS011;20233;50.804;7.126;2022-08-19T04:58:21;27.35;;;24.40;;
33954;SDS011;20233;50.804;7.126;2022-08-19T05:00:48;26.52;;;23.70;;
33954;SDS011;20233;50.804;7.126;2022-08-19T05:03:13;26.77;;;23.98;;
33954;SDS011;20233;50.804;7.126;2022-08-19T05:05:42;29.42;;;25.17;;
33954;SDS011;20233;50.804;7.126;2022-08-19T05:08:09;30.27;;;24.98;;
33954;SDS011;20233;50.804;7.126;2022-08-19T05:10:35;28.00;;;25.02;;
33954;SDS011;20233;50.804;7.126;2022-08-19T05:13:04;29.35;;;25.15;;
33954;SDS011;20233;50.804;7.126;2022-08-19T05:15:30;30.25;;;25.65;;
33954;SDS011;20233;50.804;7.126;2022-08-19T05:17:56;25.02;;;22.42;;
33954;SDS011;20233;50.804;7.126;2022-08-19T05:20:40;30.52;;;25.50;;
33954;SDS011;20233;50.804;7.126;2022-08-19T05:23:25;28.67;;;25.17;;
33954;SDS011;20233;50.804;7.126;2022-08-19T05:25:51;27.33;;;24.35;;
33954;SDS011;20233;50.804;7.126;2022-08-19T05:28:17;29.83;;;24.92;;
33954;SDS011;20233;50.804;7.126;2022-08-19T05:30:44;28.20;;;25.15;;
33954;SDS011;20233;50.804;7.126;2022-08-19T05:33:11;30.40;;;25.20;;
33954;SDS011;20233;50.804;7.126;2022-08-19T05:35:38;28.92;;;24.92;;
33954;SDS011;20233;50.804;7.126;2022-08-19T05:38:04;29.65;;;26.25;;
33954;SDS011;20233;50.804;7.126;2022-08-19T05:40:33;28.80;;;24.08;;
33954;SDS011;20233;50.804;7.126;2022-08-19T05:43:00;30.58;;;24.58;;
33954;SDS011;20233;50.804;7.126;2022-08-19T05:45:27;30.08;;;25.08;;
33954;SDS011;20233;50.804;7.126;2022-08-19T05:47:52;31.20;;;25.33;;
33954;SDS011;20233;50.804;7.126;2022-08-19T05:50:19;31.92;;;28.20;;
33954;SDS011;20233;50.804;7.126;2022-08-19T05:52:44;36.25;;;27.92;;
33954;SDS011;20233;50.804;7.126;2022-08-19T05:55:10;31.77;;;26.20;;
33954;SDS011;20233;50.804;7.126;2022-08-19T05:57:36;35.95;;;28.35;;
33954;SDS011;20233;50.804;7.126;2022-08-19T06:00:03;35.63;;;27.98;;
33954;SDS011;20233;50.804;7.126;2022-08-19T06:02:33;30.17;;;26.92;;
33954;SDS011;20233;50.804;7.126;2022-08-19T06:05:00;42.30;;;29.70;;
33954;SDS011;20233;50.804;7.126;2022-08-19T06:07:27;36.15;;;29.45;;
33954;SDS011;20233;50.804;7.126;2022-08-19T06:09:54;40.75;;;30.05;;
33954;SDS011;20233;50.804;7.126;2022-08-19T06:12:21;37.60;;;31.20;;
33954;SDS011;20233;50.804;7.126;2022-08-19T06:14:57;37.20;;;31.65;;
33954;SDS011;20233;50.804;7.126;2022-08-19T06:17:24;37.75;;;31.58;;
33954;SDS011;20233;50.804;7.126;2022-08-19T06:19:51;38.45;;;31.60;;
33954;SDS011;20233;50.804;7.126;2022-08-19T06:22:17;43.67;;;34.58;;
33954;SDS011;20233;50.804;7.126;2022-08-19T06:24:43;43.08;;;34.15;;
33954;SDS011;20233;50.804;7.126;2022-08-19T06:27:08;41.92;;;35.08;;
33954;SDS011;20233;50.804;7.126;2022-08-19T06:29:34;37.97;;;32.45;;
33954;SDS011;20233;50.804;7.126;2022-08-19T06:32:00;47.92;;;35.38;;
33954;SDS011;20233;50.804;7.126;2022-08-19T06:34:28;45.03;;;35.47;;
33954;SDS011;20233;50.804;7.126;2022-08-19T06:36:56;44.40;;;34.20;;
33954;SDS011;20233;50.804;7.126;2022-08-19T06:39:28;43.03;;;35.67;;
33954;SDS011;20233;50.804;7.126;2022-08-19T06:41:56;45.22;;;36.90;;
33954;SDS011;20233;50.804;7.126;2022-08-19T06:44:25;42.03;;;35.97;;
33954;SDS011;20233;50.804;7.126;2022-08-19T06:46:53;43.13;;;35.97;;
33954;SDS011;20233;50.804;7.126;2022-08-19T06:49:20;43.65;;;34.92;;
33954;SDS011;20233;50.804;7.126;2022-08-19T06:51:47;45.05;;;35.20;;
33954;SDS011;20233;50.804;7.126;2022-08-19T06:54:14;45.80;;;35.42;;
33954;SDS011;20233;50.804;7.126;2022-08-19T06:56:41;41.80;;;33.22;;
33954;SDS011;20233;50.804;7.126;2022-08-19T06:59:12;44.35;;;34.97;;
33954;SDS011;20233;50.804;7.126;2022-08-19T07:01:41;42.35;;;34.63;;
33954;SDS011;20233;50.804;7.126;2022-08-19T07:04:10;44.20;;;37.00;;
33954;SDS011;20233;50.804;7.126;2022-08-19T07:06:36;52.00;;;38.35;;
33954;SDS011;20233;50.804;7.126;2022-08-19T07:09:03;50.83;;;37.92;;
33954;SDS011;20233;50.804;7.126;2022-08-19T07:11:30;46.80;;;35.90;;
33954;SDS011;20233;50.804;7.126;2022-08-19T07:13:55;50.30;;;39.22;;
33954;SDS011;20233;50.804;7.126;2022-08-19T07:16:21;53.08;;;40.78;;
33954;SDS011;20233;50.804;7.126;2022-08-19T07:18:47;52.72;;;37.75;;
33954;SDS011;20233;50.804;7.126;2022-08-19T07:21:15;54.95;;;41.55;;
33954;SDS011;20233;50.804;7.126;2022-08-19T07:23:43;56.38;;;39.97;;
33954;SDS011;20233;50.804;7.126;2022-08-19T07:26:16;54.75;;;38.95;;
33954;SDS011;20233;50.804;7.126;2022-08-19T07:28:45;51.10;;;37.35;;
33954;SDS011;20233;50.804;7.126;2022-08-19T07:31:12;51.50;;;38.22;;
33954;SDS011;20233;50.804;7.126;2022-08-19T07:33:43;46.25;;;35.22;;
33954;SDS011;20233;50.804;7.126;2022-08-19T07:36:09;48.20;;;37.85;;
33954;SDS011;20233;50.804;7.126;2022-08-19T07:38:38;47.05;;;34.95;;
33954;SDS011;20233;50.804;7.126;2022-08-19T07:41:06;40.85;;;32.63;;
33954;SDS011;20233;50.804;7.126;2022-08-19T07:43:34;45.53;;;34.50;;
33954;SDS011;20233;50.804;7.126;2022-08-19T07:45:59;44.55;;;33.75;;
33954;SDS011;20233;50.804;7.126;2022-08-19T07:48:26;40.25;;;32.08;;
33954;SDS011;20233;50.804;7.126;2022-08-19T07:50:54;38.35;;;30.95;;
33954;SDS011;20233;50.804;7.126;2022-08-19T07:53:23;36.28;;;29.05;;
33954;SDS011;20233;50.804;7.126;2022-08-19T07:55:49;38.63;;;29.50;;
33954;SDS011;20233;50.804;7.126;2022-08-19T07:58:16;33.45;;;26.55;;
33954;SDS011;20233;50.804;7.126;2022-08-19T08:00:45;37.72;;;28.05;;
33954;SDS011;20233;50.804;7.126;2022-08-19T08:03:12;38.38;;;28.63;;
33954;SDS011;20233;50.804;7.126;2022-08-19T08:05:39;37.63;;;27.23;;
33954;SDS011;20233;50.804;7.126;2022-08-19T08:08:23;32.78;;;26.63;;
33954;SDS011;20233;50.804;7.126;2022-08-19T08:11:08;32.70;;;24.80;;
33954;SDS011;20233;50.804;7.126;2022-08-19T08:13:34;34.67;;;26.80;;
33954;SDS011;20233;50.804;7.126;2022-08-19T08:16:00;32.30;;;26.23;;
33954;SDS011;20233;50.804;7.126;2022-08-19T08:18:27;36.50;;;27.40;;
33954;SDS011;20233;50.804;7.126;2022-08-19T08:20:53;26.65;;;21.20;;
33954;SDS011;20233;50.804;7.126;2022-08-19T08:23:19;28.73;;;23.42;;
33954;SDS011;20233;50.804;7.126;2022-08-19T08:25:50;20.98;;;18.20;;
33954;SDS011;20233;50.804;7.126;2022-08-19T08:28:18;22.98;;;16.60;;
33954;SDS011;20233;50.804;7.126;2022-08-19T08:30:44;23.65;;;17.85;;
33954;SDS011;20233;50.804;7.126;2022-08-19T08:33:12;22.35;;;17.23;;
33954;SDS011;20233;50.804;7.126;2022-08-19T08:35:38;19.58;;;15.25;;
33954;SDS011;20233;50.804;7.126;2022-08-19T08:38:07;22.80;;;17.10;;
33954;SDS011;20233;50.804;7.126;2022-08-19T08:48:46;26.42;;;20.73;;
33954;SDS011;20233;50.804;7.126;2022-08-19T08:51:20;21.48;;;16.17;;
33954;SDS011;20233;50.804;7.126;2022-08-19T08:53:51;23.50;;;15.80;;
33954;SDS011;20233;50.804;7.126;2022-08-19T08:56:18;20.30;;;16.80;;
33954;SDS011;20233;50.804;7.126;2022-08-19T08:58:49;27.35;;;20.10;;
33954;SDS011;20233;50.804;7.126;2022-08-19T09:01:21;25.83;;;18.88;;
33954;SDS011;20233;50.804;7.126;2022-08-19T09:03:47;23.08;;;18.55;;
33954;SDS011;20233;50.804;7.126;2022-08-19T09:06:37;22.38;;;19.98;;
33954;SDS011;20233;50.804;7.126;2022-08-19T09:09:04;21.30;;;16.02;;
33954;SDS011;20233;50.804;7.126;2022-08-19T09:12:02;23.10;;;16.08;;
33954;SDS011;20233;50.804;7.126;2022-08-19T09:14:50;30.50;;;20.05;;
33954;SDS011;20233;50.804;7.126;2022-08-19T09:17:29;27.10;;;19.25;;
33954;SDS011;20233;50.804;7.126;2022-08-19T09:20:00;25.02;;;19.50;;
33954;SDS011;20233;50.804;7.126;2022-08-19T09:22:30;23.00;;;17.05;;
33954;SDS011;20233;50.804;7.126;2022-08-19T09:24:56;23.05;;;18.23;;
33954;SDS011;20233;50.804;7.126;2022-08-19T09:27:22;25.70;;;20.67;;
33954;SDS011;20233;50.804;7.126;2022-08-19T09:29:50;28.27;;;19.95;;
33954;SDS011;20233;50.804;7.126;2022-08-19T09:32:18;29.17;;;20.65;;
33954;SDS011;20233;50.804;7.126;2022-08-19T09:34:45;29.88;;;20.98;;
33954;SDS011;20233;50.804;7.126;2022-08-19T09:37:11;29.77;;;20.42;;
33954;SDS011;20233;50.804;7.126;2022-08-19T09:39:37;27.85;;;23.60;;
33954;SDS011;20233;50.804;7.126;2022-08-19T09:42:05;29.70;;;21.27;;
33954;SDS011;20233;50.804;7.126;2022-08-19T09:44:36;29.35;;;22.65;;
33954;SDS011;20233;50.804;7.126;2022-08-19T09:47:06;31.23;;;22.43;;
33954;SDS011;20233;50.804;7.126;2022-08-19T09:49:32;37.88;;;26.83;;
33954;SDS011;20233;50.804;7.126;2022-08-19T09:51:58;32.78;;;24.90;;
33954;SDS011;20233;50.804;7.126;2022-08-19T09:54:24;29.05;;;23.40;;
33954;SDS011;20233;50.804;7.126;2022-08-19T09:56:50;29.13;;;21.02;;
33954;SDS011;20233;50.804;7.126;2022-08-19T09:59:17;31.08;;;23.98;;
33954;SDS011;20233;50.804;7.126;2022-08-19T10:01:42;31.02;;;23.58;;
33954;SDS011;20233;50.804;7.126;2022-08-19T10:04:08;31.10;;;24.48;;
33954;SDS011;20233;50.804;7.126;2022-08-19T10:06:34;27.73;;;21.95;;
33954;SDS011;20233;50.804;7.126;2022-08-19T10:09:03;31.85;;;21.17;;
33954;SDS011;20233;50.804;7.126;2022-08-19T10:11:31;31.17;;;23.60;;
33954;SDS011;20233;50.804;7.126;2022-08-19T10:13:58;30.30;;;23.38;;
33954;SDS011;20233;50.804;7.126;2022-08-19T10:16:25;25.10;;;20.23;;
33954;SDS011;20233;50.804;7.126;2022-08-19T10:18:51;26.75;;;20.77;;
33954;SDS011;20233;50.804;7.126;2022-08-19T10:21:19;34.42;;;24.60;;
33954;SDS011;20233;50.804;7.126;2022-08-19T10:23:51;34.38;;;24.85;;
33954;SDS011;20233;50.804;7.126;2022-08-19T10:26:20;32.17;;;26.23;;
33954;SDS011;20233;50.804;7.126;2022-08-19T10:28:48;31.33;;;23.17;;
33954;SDS011;20233;50.804;7.126;2022-08-19T10:31:18;29.08;;;24.05;;
33954;SDS011;20233;50.804;7.126;2022-08-19T10:33:48;35.90;;;28.52;;
33954;SDS011;20233;50.804;7.126;2022-08-19T10:36:18;33.55;;;25.52;;
33954;SDS011;20233;50.804;7.126;2022-08-19T10:38:48;33.22;;;25.70;;
33954;SDS011;20233;50.804;7.126;2022-08-19T10:41:19;29.67;;;23.80;;
33954;SDS011;20233;50.804;7.126;2022-08-19T10:43:49;34.10;;;26.15;;
33954;SDS011;20233;50.804;7.126;2022-08-19T10:46:17;30.30;;;22.10;;
33954;SDS011;20233;50.804;7.126;2022-08-19T10:48:44;23.15;;;19.50;;
33954;SDS011;20233;50.804;7.126;2022-08-19T10:51:10;25.00;;;20.45;;
33954;SDS011;20233;50.804;7.126;2022-08-19T10:53:56;25.80;;;20.02;;
33954;SDS011;20233;50.804;7.126;2022-08-19T10:56:23;24.10;;;19.20;;
33954;SDS011;20233;50.804;7.126;2022-08-19T10:59:07;23.65;;;20.25;;
33954;SDS011;20233;50.804;7.126;2022-08-19T11:01:33;19.13;;;16.30;;
33954;SDS011;20233;50.804;7.126;2022-08-19T11:04:02;21.17;;;17.70;;
33954;SDS011;20233;50.804;7.126;2022-08-19T11:06:29;23.10;;;18.15;;
33954;SDS011;20233;50.804;7.126;2022-08-19T11:08:57;20.45;;;16.95;;
33954;SDS011;20233;50.804;7.126;2022-08-19T11:11:25;20.45;;;18.17;;
33954;SDS011;20233;50.804;7.126;2022-08-19T11:13:51;18.83;;;15.40;;
33954;SDS011;20233;50.804;7.126;2022-08-19T11:16:19;16.70;;;13.77;;
33954;SDS011;20233;50.804;7.126;2022-08-19T11:18:48;19.25;;;14.45;;
33954;SDS011;20233;50.804;7.126;2022-08-19T11:21:19;25.17;;;18.83;;
33954;SDS011;20233;50.804;7.126;2022-08-19T11:23:57;15.35;;;13.75;;
33954;SDS011;20233;50.804;7.126;2022-08-19T11:26:25;19.60;;;16.13;;
33954;SDS011;20233;50.804;7.126;2022-08-19T11:28:54;19.65;;;16.17;;
33954;SDS011;20233;50.804;7.126;2022-08-19T11:31:22;18.02;;;15.32;;
33954;SDS011;20233;50.804;7.126;2022-08-19T11:33:50;16.05;;;14.20;;
33954;SDS011;20233;50.804;7.126;2022-08-19T11:36:16;15.70;;;14.15;;
33954;SDS011;20233;50.804;7.126;2022-08-19T11:38:42;14.80;;;13.07;;
33954;SDS011;20233;50.804;7.126;2022-08-19T11:41:09;14.02;;;12.25;;
33954;SDS011;20233;50.804;7.126;2022-08-19T11:43:35;13.90;;;12.10;;
33954;SDS011;20233;50.804;7.126;2022-08-19T11:46:04;16.83;;;13.18;;
33954;SDS011;20233;50.804;7.126;2022-08-19T11:48:35;13.02;;;11.43;;
33954;SDS011;20233;50.804;7.126;2022-08-19T11:51:03;14.50;;;12.73;;
33954;SDS011;20233;50.804;7.126;2022-08-19T11:53:34;12.80;;;10.10;;
33954;SDS011;20233;50.804;7.126;2022-08-19T11:56:00;12.15;;;10.13;;
33954;SDS011;20233;50.804;7.126;2022-08-19T11:58:27;12.88;;;11.52;;
33954;SDS011;20233;50.804;7.126;2022-08-19T12:00:54;13.00;;;10.90;;
33954;SDS011;20233;50.804;7.126;2022-08-19T12:03:19;15.98;;;9.73;;
33954;SDS011;20233;50.804;7.126;2022-08-19T12:05:45;11.57;;;8.32;;
33954;SDS011;20233;50.804;7.126;2022-08-19T12:08:11;13.13;;;11.60;;
33954;SDS011;20233;50.804;7.126;2022-08-19T12:10:37;15.02;;;11.73;;
33954;SDS011;20233;50.804;7.126;2022-08-19T12:13:03;13.32;;;11.75;;
33954;SDS011;20233;50.804;7.126;2022-08-19T12:15:29;12.95;;;11.55;;
33954;SDS011;20233;50.804;7.126;2022-08-19T12:17:56;10.95;;;9.55;;
33954;SDS011;20233;50.804;7.126;2022-08-19T12:20:22;15.13;;;9.68;;
33954;SDS011;20233;50.804;7.126;2022-08-19T12:22:49;17.58;;;10.43;;
33954;SDS011;20233;50.804;7.126;2022-08-19T12:25:15;10.13;;;9.07;;
33954;SDS011;20233;50.804;7.126;2022-08-19T12:27:41;10.00;;;9.00;;
33954;SDS011;20233;50.804;7.126;2022-08-19T12:30:08;10.77;;;9.20;;
33954;SDS011;20233;50.804;7.126;2022-08-19T12:32:36;13.68;;;10.68;;
33954;SDS011;20233;50.804;7.126;2022-08-19T12:35:02;10.35;;;8.82;;
33954;SDS011;20233;50.804;7.126;2022-08-19T12:37:27;11.82;;;8.55;;
33954;SDS011;20233;50.804;7.126;2022-08-19T12:39:54;11.30;;;8.98;;
33954;SDS011;20233;50.804;7.126;2022-08-19T12:42:20;11.60;;;9.07;;
33954;SDS011;20233;50.804;7.126;2022-08-19T12:44:47;10.10;;;8.27;;
33954;SDS011;20233;50.804;7.126;2022-08-19T12:47:13;11.23;;;8.82;;
33954;SDS011;20233;50.804;7.126;2022-08-19T12:49:39;12.73;;;11.13;;
33954;SDS011;20233;50.804;7.126;2022-08-19T12:52:06;12.65;;;10.18;;
33954;SDS011;20233;50.804;7.126;2022-08-19T12:54:33;11.05;;;9.95;;
33954;SDS011;20233;50.804;7.126;2022-08-19T12:57:00;9.63;;;8.05;;
33954;SDS011;20233;50.804;7.126;2022-08-19T12:59:30;12.27;;;11.05;;
33954;SDS011;20233;50.804;7.126;2022-08-19T13:01:56;12.30;;;9.38;;
33954;SDS011;20233;50.804;7.126;2022-08-19T13:04:22;14.55;;;10.50;;
33954;SDS011;20233;50.804;7.126;2022-08-19T13:06:48;11.27;;;9.65;;
33954;SDS011;20233;50.804;7.126;2022-08-19T13:09:14;14.07;;;10.27;;
33954;SDS011;20233;50.804;7.126;2022-08-19T13:11:40;13.57;;;9.63;;
33954;SDS011;20233;50.804;7.126;2022-08-19T13:14:05;12.07;;;10.02;;
33954;SDS011;20233;50.804;7.126;2022-08-19T13:16:31;10.98;;;9.20;;
33954;SDS011;20233;50.804;7.126;2022-08-19T13:18:57;9.50;;;8.07;;
33954;SDS011;20233;50.804;7.126;2022-08-19T13:21:24;10.27;;;8.30;;
33954;SDS011;20233;50.804;7.126;2022-08-19T13:23:52;8.07;;;6.10;;
33954;SDS011;20233;50.804;7.126;2022-08-19T13:26:19;10.00;;;6.88;;
33954;SDS011;20233;50.804;7.126;2022-08-19T13:28:45;8.65;;;6.70;;
33954;SDS011;20233;50.804;7.126;2022-08-19T13:31:31;8.57;;;6.50;;
33954;SDS011;20233;50.804;7.126;2022-08-19T13:34:16;8.68;;;7.22;;
33954;SDS011;20233;50.804;7.126;2022-08-19T13:36:44;10.13;;;7.93;;
33954;SDS011;20233;50.804;7.126;2022-08-19T13:39:10;9.43;;;7.32;;
33954;SDS011;20233;50.804;7.126;2022-08-19T13:41:36;12.07;;;9.07;;
33954;SDS011;20233;50.804;7.126;2022-08-19T13:44:07;10.45;;;8.50;;
33954;SDS011;20233;50.804;7.126;2022-08-19T13:46:33;10.02;;;7.95;;
33954;SDS011;20233;50.804;7.126;2022-08-19T13:48:59;11.65;;;8.60;;
33954;SDS011;20233;50.804;7.126;2022-08-19T13:51:24;12.95;;;9.82;;
33954;SDS011;20233;50.804;7.126;2022-08-19T13:53:50;11.18;;;8.15;;
33954;SDS011;20233;50.804;7.126;2022-08-19T13:56:16;12.27;;;8.30;;
33954;SDS011;20233;50.804;7.126;2022-08-19T13:58:44;10.07;;;6.82;;
33954;SDS011;20233;50.804;7.126;2022-08-19T14:01:10;10.45;;;6.40;;
33954;SDS011;20233;50.804;7.126;2022-08-19T14:03:36;8.57;;;6.22;;
33954;SDS011;20233;50.804;7.126;2022-08-19T14:06:02;7.30;;;6.05;;
33954;SDS011;20233;50.804;7.126;2022-08-19T14:08:28;8.23;;;5.57;;
33954;SDS011;20233;50.804;7.126;2022-08-19T14:10:57;8.90;;;4.95;;
33954;SDS011;20233;50.804;7.126;2022-08-19T14:13:23;7.45;;;4.80;;
33954;SDS011;20233;50.804;7.126;2022-08-19T14:15:49;9.88;;;5.57;;
33954;SDS011;20233;50.804;7.126;2022-08-19T14:18:16;7.88;;;5.72;;
33954;SDS011;20233;50.804;7.126;2022-08-19T14:20:42;6.82;;;5.53;;
33954;SDS011;20233;50.804;7.126;2022-08-19T14:23:09;7.25;;;5.25;;
33954;SDS011;20233;50.804;7.126;2022-08-19T14:25:35;7.60;;;5.90;;
33954;SDS011;20233;50.804;7.126;2022-08-19T14:28:01;8.60;;;5.35;;
33954;SDS011;20233;50.804;7.126;2022-08-19T14:30:27;8.10;;;5.32;;
33954;SDS011;20233;50.804;7.126;2022-08-19T14:32:56;11.05;;;7.72;;
33954;SDS011;20233;50.804;7.126;2022-08-19T14:35:23;10.00;;;7.70;;
33954;SDS011;20233;50.804;7.126;2022-08-19T14:37:49;9.23;;;6.95;;